Time;durP1;ratioP1;P1;durP2;ratioP2;P2;SDS_P1;SDS_P2;PMS_P1;PMS_P2;Temp;Humidity;BMP_temperature;BMP_pressure;BME280_temperature;BME280_humidity;BME280_pressure;Samples;Min_cycle;Max_cycle;Signal;HPM_P1;HPM_P2
2023/12/16 00:01:24;;;;;;;13.57;5.82;;;-7.50;95.10;;;;;;4895488;29;20028;-85
2023/12/16 00:03:50;;;;;;;23.52;6.07;;;-7.50;95.10;;;;;;4891801;29;20064;-86
2023/12/16 00:06:19;;;;;;;20.42;6.18;;;-7.50;95.10;;;;;;4885721;29;20037;-87
2023/12/16 00:08:50;;;;;;;16.50;7.15;;;-7.50;95.10;;;;;;4889841;29;20417;-86
2023/12/16 00:11:17;;;;;;;16.77;7.10;;;-7.40;95.10;;;;;;4889456;29;20454;-86
2023/12/16 00:13:42;;;;;;;14.00;6.35;;;-7.40;95.10;;;;;;4918130;29;20040;-87
2023/12/16 00:16:08;;;;;;;14.52;6.18;;;-7.40;95.00;;;;;;4892861;29;20040;-87
2023/12/16 00:18:36;;;;;;;18.30;6.28;;;-7.40;95.00;;;;;;4922237;29;20078;-87
2023/12/16 00:21:01;;;;;;;;;;;-7.40;95.00;;;;;;4869291;29;20069;-85
2023/12/16 00:23:27;;;;;;;18.67;5.13;;;-7.40;95.00;;;;;;4879538;29;19908;-85
2023/12/16 00:25:53;;;;;;;20.85;6.63;;;-7.40;95.00;;;;;;4868470;29;20068;-86
2023/12/16 00:28:19;;;;;;;15.20;6.97;;;-7.40;94.90;;;;;;4873953;29;20037;-86
2023/12/16 00:30:46;;;;;;;17.27;6.65;;;-7.40;94.90;;;;;;4898915;29;20120;-86
2023/12/16 00:33:12;;;;;;;12.15;5.70;;;-7.40;94.90;;;;;;4881666;29;20627;-87
2023/12/16 00:35:37;;;;;;;17.42;5.82;;;-7.40;94.90;;;;;;4909608;29;20164;-87
2023/12/16 00:38:06;;;;;;;17.00;6.68;;;-7.40;94.90;;;;;;4907801;29;20099;-88
2023/12/16 00:40:32;;;;;;;18.52;6.22;;;-7.40;94.90;;;;;;4911390;29;20116;-86
2023/12/16 00:43:00;;;;;;;9.57;4.70;;;-7.30;94.90;;;;;;4905620;29;20029;-86
2023/12/16 00:45:25;;;;;;;;;;;-7.40;94.90;;;;;;4907483;29;20092;-86
2023/12/16 00:47:51;;;;;;;21.13;6.67;;;-7.30;94.90;;;;;;4899557;29;19907;-88
2023/12/16 00:50:17;;;;;;;17.00;5.20;;;-7.40;94.80;;;;;;4902763;29;20059;-89
2023/12/16 00:52:43;;;;;;;16.48;6.15;;;-7.40;95.00;;;;;;4929956;28;20471;-85
2023/12/16 00:55:09;;;;;;;18.20;7.88;;;-7.40;95.10;;;;;;4958744;28;20349;-87
2023/12/16 00:57:35;;;;;;;14.48;6.30;;;-7.40;95.10;;;;;;4961161;28;20481;-87
2023/12/16 01:00:01;;;;;;;15.65;4.47;;;-7.40;95.10;;;;;;4957273;28;20030;-87
2023/12/16 01:02:27;;;;;;;10.80;5.00;;;-7.40;95.10;;;;;;4949595;29;20047;-87
2023/12/16 01:04:53;;;;;;;11.68;4.70;;;-7.40;95.10;;;;;;4956632;29;20031;-88
2023/12/16 01:07:19;;;;;;;24.63;6.82;;;-7.40;95.20;;;;;;4957032;29;20028;-85
2023/12/16 01:09:45;;;;;;;19.90;6.05;;;-7.40;95.10;;;;;;4958230;28;20019;-84
2023/12/16 01:12:11;;;;;;;21.98;5.35;;;-7.40;95.10;;;;;;4958419;28;20133;-84
2023/12/16 01:14:36;;;;;;;8.38;4.28;;;-7.30;95.10;;;;;;4968120;28;20461;-83
2023/12/16 01:17:03;;;;;;;25.23;5.70;;;-7.30;95.20;;;;;;4960857;29;20020;-84
2023/12/16 01:19:28;;;;;;;18.52;6.40;;;-7.30;95.00;;;;;;4963175;28;20042;-83
2023/12/16 01:21:54;;;;;;;16.40;7.20;;;-7.30;95.00;;;;;;4958751;28;20027;-83
2023/12/16 01:24:21;;;;;;;21.42;6.30;;;-7.30;95.00;;;;;;4960123;28;20114;-84
2023/12/16 01:26:47;;;;;;;15.95;5.95;;;-7.30;95.00;;;;;;4960022;28;20023;-86
2023/12/16 01:29:14;;;;;;;19.95;6.30;;;-7.30;95.00;;;;;;4963153;29;20159;-86
2023/12/16 01:31:40;;;;;;;15.82;4.03;;;-7.30;95.10;;;;;;4967411;28;20019;-85
2023/12/16 01:34:06;;;;;;;13.70;5.18;;;-7.30;95.40;;;;;;4949448;29;20032;-86
2023/12/16 01:36:32;;;;;;;15.88;5.25;;;-7.30;95.10;;;;;;4953910;29;20024;-85
2023/12/16 01:38:58;;;;;;;15.03;6.47;;;-7.30;95.00;;;;;;4953226;29;20056;-84
2023/12/16 01:41:24;;;;;;;8.95;4.25;;;-7.30;95.00;;;;;;4965998;28;20023;-85
2023/12/16 01:43:50;;;;;;;10.43;3.88;;;-7.30;95.20;;;;;;4965538;28;20114;-84
2023/12/16 01:46:16;;;;;;;16.95;4.85;;;-7.30;95.20;;;;;;4955753;29;20159;-84
2023/12/16 01:48:43;;;;;;;20.25;6.00;;;-7.20;95.20;;;;;;4968847;29;20027;-85
2023/12/16 01:51:09;;;;;;;15.10;5.53;;;-7.20;95.20;;;;;;4962608;28;20143;-84
2023/12/16 01:53:35;;;;;;;18.10;5.70;;;-7.20;95.30;;;;;;4957099;29;20054;-84
2023/12/16 01:56:02;;;;;;;18.90;4.85;;;-7.20;95.50;;;;;;4957205;28;20477;-83
2023/12/16 01:58:28;;;;;;;16.88;5.05;;;-7.20;95.60;;;;;;4956273;28;20020;-84
2023/12/16 02:00:54;;;;;;;14.63;5.03;;;-7.20;95.60;;;;;;4958188;29;20023;-82
2023/12/16 02:03:21;;;;;;;16.63;5.50;;;-7.20;95.60;;;;;;4957400;29;20059;-85
2023/12/16 02:05:47;;;;;;;16.73;6.53;;;-7.20;95.50;;;;;;4949071;28;20101;-84
2023/12/16 02:08:13;;;;;;;16.20;4.97;;;-7.20;95.40;;;;;;4975401;28;20404;-86
2023/12/16 02:10:39;;;;;;;21.63;6.75;;;-7.10;95.40;;;;;;4971623;28;20024;-84
2023/12/16 02:13:05;;;;;;;12.95;5.38;;;-7.10;95.40;;;;;;4955102;29;20046;-83
2023/12/16 02:15:31;;;;;;;15.52;4.97;;;-7.10;95.40;;;;;;4962295;28;20023;-85
2023/12/16 02:17:57;;;;;;;5.22;3.05;;;-7.10;95.50;;;;;;4964935;29;20481;-83
2023/12/16 02:20:23;;;;;;;13.20;5.00;;;-7.00;95.60;;;;;;4970866;28;20023;-83
2023/12/16 02:22:50;;;;;;;10.55;5.30;;;-7.00;95.70;;;;;;4958447;28;20028;-83
2023/12/16 02:25:17;;;;;;;8.07;3.72;;;-7.00;95.70;;;;;;4962508;29;20054;-84
2023/12/16 02:27:46;;;;;;;16.45;4.95;;;-7.00;95.80;;;;;;4958568;28;20272;-84
2023/12/16 02:30:13;;;;;;;21.95;6.07;;;-7.00;95.80;;;;;;4952078;28;20035;-83
2023/12/16 02:32:41;;;;;;;14.23;5.82;;;-6.90;95.80;;;;;;4940019;29;20484;-84
2023/12/16 02:35:07;;;;;;;15.23;5.68;;;-6.90;95.70;;;;;;4958399;28;20043;-84
2023/12/16 02:37:33;;;;;;;23.48;6.88;;;-6.90;95.60;;;;;;4958510;28;20027;-85
2023/12/16 02:39:59;;;;;;;17.70;6.25;;;-6.90;95.50;;;;;;4955066;28;20428;-84
2023/12/16 02:42:25;;;;;;;11.82;3.85;;;-6.90;95.60;;;;;;4962686;28;20528;-84
2023/12/16 02:44:50;;;;;;;11.43;4.53;;;-6.90;95.60;;;;;;4962048;28;20105;-86
2023/12/16 02:47:16;;;;;;;16.35;5.18;;;-6.90;95.70;;;;;;4936013;28;20365;-85
2023/12/16 02:49:44;;;;;;;16.50;5.85;;;-6.80;95.90;;;;;;4964726;28;20038;-84
2023/12/16 02:52:10;;;;;;;16.27;7.05;;;-6.80;95.90;;;;;;4938633;29;20027;-85
2023/12/16 02:54:36;;;;;;;13.77;5.00;;;-6.90;95.90;;;;;;4965616;28;20086;-81
2023/12/16 02:57:01;;;;;;;19.38;6.32;;;-6.90;95.90;;;;;;4984468;28;20023;-85
2023/12/16 02:59:28;;;;;;;15.45;6.60;;;-6.80;96.10;;;;;;4962846;28;20388;-85
2023/12/16 03:01:54;;;;;;;12.38;4.68;;;-6.80;96.10;;;;;;4935822;29;20552;-83
2023/12/16 03:04:20;;;;;;;15.27;6.53;;;-6.80;96.20;;;;;;4950578;29;20050;-84
2023/12/16 03:06:46;;;;;;;17.15;6.50;;;-6.90;96.30;;;;;;4957064;28;20023;-84
2023/12/16 03:09:12;;;;;;;12.20;4.50;;;-6.80;96.40;;;;;;4937196;29;20504;-84
2023/12/16 03:11:39;;;;;;;17.25;8.30;;;-6.80;96.50;;;;;;4960245;28;20089;-85
2023/12/16 03:14:05;;;;;;;10.75;4.28;;;-6.80;96.50;;;;;;4965740;28;20059;-86
2023/12/16 03:16:33;;;;;;;15.52;7.30;;;-6.80;96.60;;;;;;4965142;28;20042;-85
2023/12/16 03:18:59;;;;;;;14.80;6.57;;;-6.80;96.80;;;;;;4939619;29;20404;-85
2023/12/16 03:21:25;;;;;;;20.52;7.90;;;-6.80;96.90;;;;;;4963283;28;20077;-84
2023/12/16 03:23:50;;;;;;;18.23;7.22;;;-6.80;97.00;;;;;;4963830;28;20070;-84
2023/12/16 03:26:16;;;;;;;25.13;6.65;;;-6.80;96.90;;;;;;4962220;28;20063;-84
2023/12/16 03:28:42;;;;;;;21.05;7.55;;;-6.80;97.10;;;;;;4957434;28;20102;-86
2023/12/16 03:31:08;;;;;;;17.90;5.65;;;-6.80;96.90;;;;;;4936097;29;20037;-84
2023/12/16 03:33:34;;;;;;;9.18;6.20;;;-6.80;97.00;;;;;;4954813;28;20039;-85
2023/12/16 03:35:59;;;;;;;14.10;5.90;;;-6.80;97.10;;;;;;4971519;28;20079;-85
2023/12/16 03:38:25;;;;;;;19.60;6.90;;;-6.80;97.20;;;;;;4953662;29;20059;-83
2023/12/16 03:40:51;;;;;;;22.60;7.65;;;-6.80;97.20;;;;;;4941095;29;20047;-84
2023/12/16 03:43:20;;;;;;;16.33;8.30;;;-6.70;97.30;;;;;;4953139;28;20030;-84
2023/12/16 03:45:46;;;;;;;18.80;7.13;;;-6.70;97.30;;;;;;4960328;28;20086;-85
2023/12/16 03:48:11;;;;;;;16.75;7.18;;;-6.70;97.40;;;;;;4959523;28;20019;-85
2023/12/16 03:50:37;;;;;;;15.50;6.75;;;-6.70;97.40;;;;;;4963668;28;20477;-84
2023/12/16 03:53:03;;;;;;;17.60;8.93;;;-6.70;97.40;;;;;;4940653;29;20043;-84
2023/12/16 03:55:29;;;;;;;21.95;7.45;;;-6.60;97.50;;;;;;4946882;29;20094;-82
2023/12/16 03:57:55;;;;;;;13.38;6.72;;;-6.60;97.40;;;;;;4968436;29;20103;-86
2023/12/16 04:00:20;;;;;;;18.33;7.55;;;-6.60;97.40;;;;;;4967202;29;20027;-85
2023/12/16 04:02:46;;;;;;;10.75;6.35;;;-6.60;97.50;;;;;;4964748;29;20088;-85
2023/12/16 04:05:13;;;;;;;15.65;7.47;;;-6.60;97.50;;;;;;4957232;29;20015;-83
2023/12/16 04:07:38;;;;;;;22.73;7.20;;;-6.60;97.50;;;;;;4958078;28;20086;-84
2023/12/16 04:10:05;;;;;;;22.13;8.38;;;-6.50;97.60;;;;;;4945770;29;20023;-83
2023/12/16 04:12:31;;;;;;;18.83;10.38;;;-6.50;97.60;;;;;;4968273;28;20401;-83
2023/12/16 04:14:57;;;;;;;15.98;7.38;;;-6.50;97.70;;;;;;4965606;29;20032;-84
2023/12/16 04:17:24;;;;;;;11.63;5.70;;;-6.40;97.80;;;;;;4953665;28;20073;-84
2023/12/16 04:19:51;;;;;;;14.68;7.20;;;-6.40;97.70;;;;;;4975861;28;20015;-84
2023/12/16 04:22:18;;;;;;;14.00;8.57;;;-6.40;97.70;;;;;;4943625;29;20028;-84
2023/12/16 04:24:44;;;;;;;18.80;8.95;;;-6.40;97.80;;;;;;4972982;28;20026;-85
2023/12/16 04:27:11;;;;;;;15.83;7.73;;;-6.40;97.80;;;;;;4954524;28;20038;-84
2023/12/16 04:29:36;;;;;;;21.67;9.75;;;-6.40;97.80;;;;;;4975371;28;20445;-85
2023/12/16 04:32:02;;;;;;;25.88;9.73;;;-6.30;98.00;;;;;;4959989;28;20037;-84
2023/12/16 04:34:28;;;;;;;24.60;10.43;;;-6.30;98.00;;;;;;4969236;28;20047;-84
2023/12/16 04:36:54;;;;;;;25.42;10.48;;;-6.30;98.00;;;;;;4947445;29;20016;-82
2023/12/16 04:39:20;;;;;;;16.35;7.32;;;-6.30;98.00;;;;;;4953286;29;20036;-84
2023/12/16 04:41:46;;;;;;;14.13;8.63;;;-6.30;98.00;;;;;;4947459;29;20078;-85
2023/12/16 04:44:12;;;;;;;16.92;8.65;;;-6.30;98.10;;;;;;4972224;28;20023;-85
2023/12/16 04:46:38;;;;;;;23.05;9.45;;;-6.20;98.20;;;;;;4968943;28;20031;-85
2023/12/16 04:49:04;;;;;;;18.70;10.15;;;-6.20;98.30;;;;;;4937792;28;20151;-84
2023/12/16 04:51:29;;;;;;;18.83;9.45;;;-6.20;98.30;;;;;;4965276;28;20030;-84
2023/12/16 04:53:56;;;;;;;13.15;7.50;;;-6.20;98.50;;;;;;4958947;29;20031;-85
2023/12/16 04:56:23;;;;;;;24.70;10.80;;;-6.20;98.60;;;;;;4943909;28;20396;-82
2023/12/16 04:58:49;;;;;;;22.48;10.10;;;-6.10;98.70;;;;;;4961493;28;20104;-84
2023/12/16 05:01:15;;;;;;;27.75;10.75;;;-6.10;98.80;;;;;;4964454;28;20043;-84
2023/12/16 05:03:41;;;;;;;16.20;6.97;;;-6.10;98.80;;;;;;4959376;29;20098;-84
2023/12/16 05:06:08;;;;;;;10.37;6.97;;;-6.00;99.00;;;;;;4962670;28;20031;-85
2023/12/16 05:08:34;;;;;;;30.90;12.10;;;-6.00;99.00;;;;;;4954987;29;20087;-86
2023/12/16 05:11:00;;;;;;;30.55;11.70;;;-6.00;99.10;;;;;;4958988;28;20050;-85
2023/12/16 05:13:25;;;;;;;22.05;10.02;;;-5.90;99.20;;;;;;4959480;28;20465;-84
2023/12/16 05:15:51;;;;;;;35.92;12.50;;;-5.90;99.20;;;;;;4961595;29;20020;-83
2023/12/16 05:18:18;;;;;;;24.10;10.55;;;-5.90;99.10;;;;;;4958235;29;20107;-83
2023/12/16 05:20:44;;;;;;;28.13;12.83;;;-5.80;99.10;;;;;;4959200;28;20038;-84
2023/12/16 05:23:10;;;;;;;28.38;11.43;;;-5.80;99.20;;;;;;4977513;28;20758;-84
2023/12/16 05:25:36;;;;;;;27.30;11.05;;;-5.80;99.20;;;;;;4967763;29;20027;-83
2023/12/16 05:28:02;;;;;;;26.38;11.13;;;-5.70;99.20;;;;;;4951377;29;20089;-83
2023/12/16 05:30:28;;;;;;;20.02;11.20;;;-5.70;99.20;;;;;;4967447;28;20029;-85
2023/12/16 05:32:54;;;;;;;28.13;13.00;;;-5.70;99.20;;;;;;4961293;28;20035;-83
2023/12/16 05:35:20;;;;;;;33.35;13.80;;;-5.60;99.30;;;;;;4967143;28;20023;-81
2023/12/16 05:37:47;;;;;;;36.65;10.27;;;-5.60;99.20;;;;;;4954302;28;20034;-81
2023/12/16 05:40:13;;;;;;;24.65;10.57;;;-5.60;99.20;;;;;;4961321;28;20025;-82
2023/12/16 05:42:40;;;;;;;31.80;11.82;;;-5.60;99.40;;;;;;4959950;28;20532;-82
2023/12/16 05:45:06;;;;;;;;;;;-5.50;99.40;;;;;;4954623;28;20026;-83
2023/12/16 05:47:32;;;;;;;32.47;12.80;;;-5.50;99.30;;;;;;4969914;28;19906;-83
2023/12/16 05:49:58;;;;;;;30.58;12.88;;;-5.50;99.30;;;;;;4964819;28;20358;-82
2023/12/16 05:52:24;;;;;;;22.48;8.40;;;-5.50;99.30;;;;;;4954547;29;20090;-82
2023/12/16 05:54:49;;;;;;;27.88;11.52;;;-5.40;99.30;;;;;;4961240;28;20400;-84
2023/12/16 05:57:16;;;;;;;25.55;14.57;;;-5.50;99.40;;;;;;4958562;29;20381;-81
2023/12/16 05:59:42;;;;;;;20.77;10.23;;;-5.40;99.40;;;;;;4941464;28;20059;-81
2023/12/16 06:02:08;;;;;;;30.23;12.73;;;-5.40;99.30;;;;;;4952259;28;20023;-82
2023/12/16 06:04:34;;;;;;;20.50;9.40;;;-5.40;99.40;;;;;;4937628;28;20052;-83
2023/12/16 06:07:00;;;;;;;17.25;8.23;;;-5.30;99.40;;;;;;4960431;28;20031;-83
2023/12/16 06:09:26;;;;;;;30.80;10.32;;;-5.40;99.40;;;;;;4958158;28;20353;-84
2023/12/16 06:11:55;;;;;;;26.60;11.73;;;-5.30;99.50;;;;;;4957842;29;20393;-84
2023/12/16 06:14:21;;;;;;;27.17;11.05;;;-5.30;99.40;;;;;;4963147;28;20086;-85
2023/12/16 06:16:47;;;;;;;23.70;9.35;;;-5.30;99.40;;;;;;4945667;29;20091;-83
2023/12/16 06:19:13;;;;;;;35.10;14.95;;;-5.30;99.50;;;;;;4960753;29;20031;-84
2023/12/16 06:21:39;;;;;;;28.98;13.52;;;-5.20;99.50;;;;;;4962183;28;20069;-85
2023/12/16 06:24:08;;;;;;;20.27;10.43;;;-5.20;99.40;;;;;;4958318;28;20389;-84
2023/12/16 06:26:34;;;;;;;26.48;12.10;;;-5.10;99.40;;;;;;4948397;28;20050;-84
2023/12/16 06:29:00;;;;;;;22.85;11.35;;;-5.10;99.30;;;;;;4966240;28;20029;-84
2023/12/16 06:31:26;;;;;;;18.95;9.35;;;-5.10;99.30;;;;;;4959118;28;20024;-84
2023/12/16 06:33:51;;;;;;;22.15;10.95;;;-5.00;99.30;;;;;;4953771;28;20078;-84
2023/12/16 06:36:17;;;;;;;22.95;9.98;;;-5.00;99.30;;;;;;4947519;29;20019;-82
2023/12/16 06:38:43;;;;;;;22.10;11.05;;;-5.00;99.30;;;;;;4973149;28;20023;-83
2023/12/16 06:41:09;;;;;;;19.10;10.13;;;-4.90;99.40;;;;;;4969395;28;20078;-84
2023/12/16 06:43:35;;;;;;;26.30;10.73;;;-4.90;99.40;;;;;;4940187;29;20028;-81
2023/12/16 06:46:01;;;;;;;16.38;7.97;;;-4.90;99.40;;;;;;4962494;29;20027;-85
2023/12/16 06:48:27;;;;;;;25.75;10.05;;;-4.80;99.40;;;;;;4954481;28;20070;-83
2023/12/16 06:50:57;;;;;;;14.82;6.88;;;-4.80;99.40;;;;;;4956575;28;20046;-85
2023/12/16 06:53:24;;;;;;;24.02;10.63;;;-4.80;99.50;;;;;;4966373;28;20503;-85
2023/12/16 06:55:49;;;;;;;28.65;10.57;;;-4.80;99.40;;;;;;4959532;28;20029;-83
2023/12/16 06:58:15;;;;;;;20.05;10.70;;;-4.70;99.40;;;;;;4975789;28;20078;-84
2023/12/16 07:00:41;;;;;;;21.20;9.18;;;-4.70;99.40;;;;;;4954967;29;20022;-83
2023/12/16 07:03:07;;;;;;;22.50;9.65;;;-4.60;99.40;;;;;;4962349;28;20039;-84
2023/12/16 07:05:34;;;;;;;21.40;10.02;;;-4.60;99.30;;;;;;4963965;28;20031;-83
2023/12/16 07:08:01;;;;;;;26.27;10.20;;;-4.60;99.30;;;;;;4945252;29;20082;-84
2023/12/16 07:10:27;;;;;;;21.08;9.65;;;-4.50;99.20;;;;;;4963848;28;20046;-84
2023/12/16 07:12:53;;;;;;;17.40;10.00;;;-4.50;99.30;;;;;;4957790;28;20053;-82
2023/12/16 07:15:20;;;;;;;23.05;11.65;;;-4.40;99.40;;;;;;4958057;28;20055;-83
2023/12/16 07:17:46;;;;;;;24.53;10.93;;;-4.40;99.40;;;;;;4959527;28;20035;-83
2023/12/16 07:20:12;;;;;;;29.35;12.95;;;-4.40;99.30;;;;;;4952148;29;20019;-83
2023/12/16 07:22:38;;;;;;;19.85;10.18;;;-4.30;99.30;;;;;;4961342;28;20024;-83
2023/12/16 07:25:04;;;;;;;19.05;8.93;;;-4.30;99.40;;;;;;4959397;28;20025;-85
2023/12/16 07:27:30;;;;;;;28.42;9.63;;;-4.20;99.50;;;;;;4963680;28;20047;-84
2023/12/16 07:29:57;;;;;;;14.75;8.65;;;-4.20;99.60;;;;;;4966506;28;20043;-85
2023/12/16 07:32:23;;;;;;;20.05;9.35;;;-4.20;99.50;;;;;;4968036;28;20392;-86
2023/12/16 07:34:58;;;;;;;21.33;9.57;;;-4.20;99.40;;;;;;4960098;28;20100;-84
2023/12/16 07:37:24;;;;;;;22.67;9.07;;;-4.10;99.40;;;;;;4961171;28;20428;-83
2023/12/16 07:39:50;;;;;;;18.75;8.95;;;-4.10;99.40;;;;;;4964943;28;20493;-84
2023/12/16 07:42:16;;;;;;;20.90;9.73;;;-4.10;99.30;;;;;;4944639;29;20046;-84
2023/12/16 07:44:41;;;;;;;19.98;8.32;;;-4.00;99.30;;;;;;4964180;28;20054;-84
2023/12/16 07:47:07;;;;;;;18.15;9.13;;;-4.00;99.40;;;;;;4939899;29;20042;-86
2023/12/16 07:49:39;;;;;;;18.98;10.13;;;-4.00;99.60;;;;;;4958254;28;20055;-85
2023/12/16 07:52:08;;;;;;;19.83;10.35;;;-4.00;99.70;;;;;;4950122;29;20060;-86
2023/12/16 07:54:34;;;;;;;21.35;10.45;;;-3.90;99.60;;;;;;4929036;28;20032;-85
2023/12/16 07:57:01;;;;;;;21.23;10.02;;;-3.90;99.50;;;;;;4957326;28;20015;-84
2023/12/16 07:59:27;;;;;;;19.25;10.68;;;-3.90;99.50;;;;;;4966579;28;20035;-83
2023/12/16 08:01:54;;;;;;;19.98;8.93;;;-3.80;99.60;;;;;;4954441;29;20159;-84
2023/12/16 08:04:20;;;;;;;18.65;9.63;;;-3.80;99.60;;;;;;4947936;28;20047;-83
2023/12/16 08:06:46;;;;;;;18.95;9.98;;;-3.80;99.60;;;;;;4938148;29;20082;-83
2023/12/16 08:09:13;;;;;;;22.83;10.65;;;-3.80;99.60;;;;;;4942381;28;20388;-83
2023/12/16 08:11:39;;;;;;;17.25;8.73;;;-3.70;99.60;;;;;;4956570;28;20108;-84
2023/12/16 08:14:06;;;;;;;27.85;9.43;;;-3.70;99.70;;;;;;4953281;29;20479;-83
2023/12/16 08:16:32;;;;;;;21.10;9.07;;;-3.70;99.80;;;;;;4960771;28;20047;-84
2023/12/16 08:18:58;;;;;;;18.13;10.05;;;-3.60;99.90;;;;;;4956281;28;20046;-83
2023/12/16 08:21:24;;;;;;;17.58;10.18;;;-3.60;99.90;;;;;;4953179;29;20485;-83
2023/12/16 08:23:49;;;;;;;21.38;9.13;;;-3.60;99.90;;;;;;4936053;29;20107;-84
2023/12/16 08:26:15;;;;;;;16.20;7.88;;;-3.60;99.90;;;;;;4967273;28;20046;-82
2023/12/16 08:28:42;;;;;;;20.80;10.93;;;-3.60;99.80;;;;;;4967965;28;20491;-84
2023/12/16 08:31:07;;;;;;;21.65;9.82;;;-3.50;99.90;;;;;;4944800;29;20020;-84
2023/12/16 08:33:35;;;;;;;15.63;8.52;;;-3.50;99.90;;;;;;4961923;28;20054;-85
2023/12/16 08:36:01;;;;;;;23.85;9.88;;;-3.50;99.90;;;;;;4943227;28;20078;-84
2023/12/16 08:38:28;;;;;;;26.65;9.60;;;-3.40;99.90;;;;;;4959299;28;20515;-83
2023/12/16 08:40:57;;;;;;;20.30;8.43;;;-3.40;99.80;;;;;;4960813;28;20043;-83
2023/12/16 08:43:24;;;;;;;14.70;8.60;;;-3.40;99.80;;;;;;4967867;28;20117;-82
2023/12/16 08:45:50;;;;;;;16.85;8.82;;;-3.40;99.90;;;;;;4961347;28;20070;-85
2023/12/16 08:48:16;;;;;;;15.68;8.35;;;-3.30;99.70;;;;;;4956541;29;20038;-85
2023/12/16 08:50:42;;;;;;;19.15;9.05;;;-3.30;99.80;;;;;;4966797;29;20016;-85
2023/12/16 08:53:10;;;;;;;18.30;8.15;;;-3.30;99.90;;;;;;4955481;29;20024;-89
2023/12/16 08:55:36;;;;;;;20.50;9.55;;;-3.20;99.90;;;;;;4945288;29;20024;-87
2023/12/16 08:58:02;;;;;;;21.88;9.10;;;-3.20;99.90;;;;;;4965540;28;20066;-85
2023/12/16 09:00:28;;;;;;;14.30;8.15;;;-3.20;99.90;;;;;;4968002;29;20087;-87
2023/12/16 09:02:54;;;;;;;14.60;8.20;;;-3.10;99.90;;;;;;4970240;28;20054;-86
2023/12/16 09:05:20;;;;;;;13.50;8.60;;;-3.10;99.80;;;;;;4952453;29;20035;-85
2023/12/16 09:07:46;;;;;;;14.68;7.95;;;-3.10;99.60;;;;;;4969753;28;20138;-87
2023/12/16 09:10:14;;;;;;;14.75;7.63;;;-3.00;99.80;;;;;;4975096;28;20030;-86
2023/12/16 09:12:39;;;;;;;16.98;8.45;;;-3.00;99.90;;;;;;4972661;28;20042;-85
2023/12/16 09:15:06;;;;;;;21.38;9.63;;;-3.00;99.90;;;;;;4973700;28;20027;-86
2023/12/16 09:17:34;;;;;;;22.47;10.40;;;-2.90;99.80;;;;;;4962984;28;20117;-87
2023/12/16 09:20:00;;;;;;;14.98;5.45;;;-2.90;99.70;;;;;;4988187;28;20023;-84
2023/12/16 09:22:26;;;;;;;15.65;7.78;;;-2.80;99.90;;;;;;4974697;28;20078;-85
2023/12/16 09:24:52;;;;;;;12.30;6.85;;;-2.80;99.90;;;;;;4970259;28;20105;-83
2023/12/16 09:27:18;;;;;;;11.23;6.90;;;-2.80;99.90;;;;;;4975074;28;20034;-84
2023/12/16 09:29:44;;;;;;;16.23;7.00;;;-2.70;99.90;;;;;;4979084;28;20021;-84
2023/12/16 09:32:10;;;;;;;12.63;6.70;;;-2.70;99.90;;;;;;4960777;28;20027;-84
2023/12/16 09:34:36;;;;;;;15.35;8.63;;;-2.60;99.90;;;;;;4969838;28;20062;-86
2023/12/16 09:37:02;;;;;;;11.13;6.40;;;-2.60;99.90;;;;;;4940700;29;20027;-85
2023/12/16 09:39:27;;;;;;;12.65;7.47;;;-2.60;99.90;;;;;;4957357;29;20043;-84
2023/12/16 09:41:57;;;;;;;13.82;7.03;;;-2.50;99.90;;;;;;4963489;28;20117;-87
2023/12/16 09:44:24;;;;;;;15.65;7.78;;;-2.50;99.80;;;;;;4963929;28;20054;-86
2023/12/16 09:46:50;;;;;;;20.35;7.38;;;-2.50;99.80;;;;;;4949308;29;20389;-87
2023/12/16 09:49:59;;;;;;;14.43;7.88;;;-2.40;99.80;;;;;;4964118;28;20035;-85
2023/12/16 09:52:24;;;;;;;13.68;7.80;;;-2.40;99.70;;;;;;4964641;28;20562;-87
2023/12/16 09:54:51;;;;;;;12.10;7.43;;;-2.40;99.70;;;;;;4946133;28;20030;-82
2023/12/16 09:57:20;;;;;;;19.23;7.50;;;-2.30;99.60;;;;;;4964020;28;20102;-80
2023/12/16 09:59:47;;;;;;;12.13;7.20;;;-2.30;99.60;;;;;;4960493;28;20027;-81
2023/12/16 10:02:25;;;;;;;10.30;6.07;;;-2.30;99.60;;;;;;4955419;28;20078;-83
2023/12/16 10:04:54;;;;;;;14.93;7.30;;;-2.20;99.40;;;;;;4938614;29;20146;-83
2023/12/16 10:07:20;;;;;;;12.82;7.43;;;-2.20;99.40;;;;;;4956028;28;20484;-82
2023/12/16 10:09:45;;;;;;;10.75;7.28;;;-2.20;99.20;;;;;;4938425;29;20039;-83
2023/12/16 10:12:12;;;;;;;11.63;6.95;;;-2.10;99.20;;;;;;4962289;28;20026;-82
2023/12/16 10:14:49;;;;;;;15.77;7.78;;;-2.10;99.50;;;;;;4959862;28;20037;-79
2023/12/16 10:17:16;;;;;;;11.85;6.43;;;-2.10;99.40;;;;;;4955136;28;20019;-81
2023/12/16 10:19:44;;;;;;;15.48;6.72;;;-2.10;99.40;;;;;;4958475;28;20023;-82
2023/12/16 10:22:19;;;;;;;15.98;6.63;;;-2.00;99.30;;;;;;4940117;29;20174;-80
2023/12/16 10:24:46;;;;;;;11.68;5.97;;;-2.00;99.20;;;;;;4955825;28;20147;-80
2023/12/16 10:27:13;;;;;;;15.40;9.20;;;-2.00;99.40;;;;;;4964889;28;20082;-80
2023/12/16 10:29:40;;;;;;;10.52;7.47;;;-2.00;99.40;;;;;;4958883;28;20021;-84
2023/12/16 10:32:10;;;;;;;9.55;6.07;;;-1.90;99.30;;;;;;4962504;28;20023;-84
2023/12/16 10:34:37;;;;;;;18.42;7.00;;;-1.90;99.20;;;;;;4959494;28;20031;-84
2023/12/16 10:37:07;;;;;;;9.75;6.63;;;-1.90;99.10;;;;;;4949968;28;20490;-87
2023/12/16 10:39:33;;;;;;;10.15;5.60;;;-1.90;99.40;;;;;;4957285;28;20035;-83
2023/12/16 10:41:59;;;;;;;15.13;7.15;;;-1.80;99.50;;;;;;4959443;29;20031;-85
2023/12/16 10:44:26;;;;;;;12.70;6.70;;;-1.80;99.70;;;;;;4929714;29;20023;-80
2023/12/16 10:46:54;;;;;;;11.38;6.68;;;-1.80;99.70;;;;;;4942136;29;20023;-84
2023/12/16 10:49:30;;;;;;;12.13;7.20;;;-1.80;99.60;;;;;;4945469;29;20115;-78
2023/12/16 10:52:06;;;;;;;11.10;5.17;;;-1.80;99.40;;;;;;4943278;29;20030;-83
2023/12/16 10:54:47;;;;;;;14.85;7.13;;;-1.70;99.70;;;;;;4955593;28;20409;-84
2023/12/16 10:57:37;;;;;;;12.50;6.82;;;-1.70;99.30;;;;;;4955011;29;20023;-83
2023/12/16 11:00:07;;;;;;;12.15;7.82;;;-1.70;99.40;;;;;;4957234;28;20039;-84
2023/12/16 11:02:48;;;;;;;11.15;6.78;;;-1.70;99.40;;;;;;4954862;28;20434;-81
2023/12/16 11:05:27;;;;;;;9.95;6.00;;;-1.70;99.40;;;;;;4954412;28;20111;-81
2023/12/16 11:07:56;;;;;;;14.98;7.32;;;-1.70;99.50;;;;;;4937681;29;20027;-82
2023/12/16 11:10:25;;;;;;;14.45;7.60;;;-1.70;99.40;;;;;;4937775;29;20433;-83
2023/12/16 11:12:51;;;;;;;11.05;6.25;;;-1.60;99.40;;;;;;4955620;28;20078;-82
2023/12/16 11:15:18;;;;;;;15.80;7.40;;;-1.60;99.20;;;;;;4953909;28;20074;-82
2023/12/16 11:18:04;;;;;;;13.05;7.63;;;-1.70;99.20;;;;;;4946731;28;20023;-83
2023/12/16 11:20:44;;;;;;;12.32;8.00;;;-1.60;99.30;;;;;;4955936;29;20460;-82
2023/12/16 11:23:11;;;;;;;14.57;8.30;;;-1.60;99.30;;;;;;4960452;28;20035;-82
2023/12/16 11:25:37;;;;;;;14.60;7.28;;;-1.60;99.30;;;;;;4948910;28;20031;-81
2023/12/16 11:28:05;;;;;;;17.17;8.35;;;-1.60;99.30;;;;;;4955379;28;20028;-81
2023/12/16 11:30:32;;;;;;;;;;;-1.60;99.50;;;;;;4955308;29;20038;-82
2023/12/16 11:32:59;;;;;;;9.35;5.28;;;-1.60;99.60;;;;;;4954908;29;19969;-83
2023/12/16 11:35:42;;;;;;;8.23;4.72;;;-1.60;99.70;;;;;;4958178;28;20465;-82
2023/12/16 11:38:08;;;;;;;11.35;6.13;;;-1.60;99.80;;;;;;4959806;29;20038;-83
2023/12/16 11:40:51;;;;;;;15.07;7.43;;;-1.60;99.90;;;;;;4968296;28;20030;-81
2023/12/16 11:43:17;;;;;;;12.20;6.90;;;-1.50;99.90;;;;;;4964434;28;20028;-83
2023/12/16 11:45:46;;;;;;;11.38;6.85;;;-1.40;99.90;;;;;;4966822;28;20023;-81
2023/12/16 11:48:14;;;;;;;12.65;6.93;;;-1.40;99.90;;;;;;4966878;28;20090;-83
2023/12/16 11:50:41;;;;;;;12.55;7.72;;;-1.40;99.90;;;;;;4963128;28;20024;-83
2023/12/16 11:53:12;;;;;;;8.77;6.30;;;-1.40;99.90;;;;;;4941899;29;20039;-82
2023/12/16 11:55:42;;;;;;;13.73;6.72;;;-1.40;99.90;;;;;;4957523;29;20027;-82
2023/12/16 11:58:09;;;;;;;8.48;5.43;;;-1.30;99.70;;;;;;4946620;28;20636;-84
2023/12/16 12:00:36;;;;;;;10.90;5.32;;;-1.30;99.30;;;;;;4965632;28;20023;-84
2023/12/16 12:03:02;;;;;;;8.30;5.43;;;-1.30;99.40;;;;;;4948192;29;20078;-83
2023/12/16 12:05:29;;;;;;;8.15;5.85;;;-1.40;99.30;;;;;;4958725;28;20393;-83
2023/12/16 12:07:56;;;;;;;10.77;5.28;;;-1.40;99.40;;;;;;4959692;28;20118;-82
2023/12/16 12:10:23;;;;;;;8.52;5.38;;;-1.40;99.40;;;;;;4942902;29;20496;-81
2023/12/16 12:12:52;;;;;;;14.40;6.70;;;-1.40;99.50;;;;;;4957506;28;20058;-84
2023/12/16 12:15:18;;;;;;;10.85;6.70;;;-1.40;99.50;;;;;;4940202;29;20028;-83
2023/12/16 12:17:44;;;;;;;8.95;5.43;;;-1.40;99.60;;;;;;4940859;29;20109;-81
2023/12/16 12:20:13;;;;;;;10.93;6.43;;;-1.40;99.60;;;;;;4940096;29;20446;-82
2023/12/16 12:22:40;;;;;;;10.02;6.95;;;-1.30;99.70;;;;;;4960327;29;20031;-85
2023/12/16 12:25:07;;;;;;;12.02;6.82;;;-1.30;99.90;;;;;;4976465;28;20197;-84
2023/12/16 12:27:33;;;;;;;9.57;6.38;;;-1.30;99.90;;;;;;4980294;28;20436;-85
2023/12/16 12:30:04;;;;;;;8.48;5.88;;;-1.40;99.80;;;;;;4976506;28;20022;-82
2023/12/16 12:32:32;;;;;;;7.13;5.07;;;-1.40;99.80;;;;;;4948041;29;20035;-81
2023/12/16 12:35:06;;;;;;;8.88;6.53;;;-1.40;99.90;;;;;;4964934;28;20027;-80